Retour

Les Berges de Conflans

samedi 2 décembre 2023Conflans-Sainte-Honorine, 78, FranceRunning

245 participants97 Femmes • 148 Hommes

70 licenciés (29%) • 175 non-licenciés (71%)

Temps moyen : 00:25:12

PositionNom/PrénomTps officielClubDossardCatégorieKm/hActions
1MAILLARD CHARLES00:15:11EA CERGY635ESM (1 / 8)19.7
2GRANDCLAUDON YANIS00:15:31POISSY TRIATHLON789CAM (1 / 9)19.3
3DEDOUCHE MATHYS00:15:31POISSY TRIATHLON689JUM (1 / 8)19.3
4CHEFIRAT CAMIL00:15:35POISSY TRIATHLON683MIM (1 / 7)19.2
5HAMON AXEL00:15:40POISSY TRIATHLON707SEM (1 / 28)19.1
6PELISSIER MATTHIAS00:15:42POISSY TRIATHLON695MIM (2 / 7)19.1
7BOSSARD MARTIN00:16:06ES SARTROUVILLE831JUM (2 / 8)18.6
8REMONDI DAMIEN00:16:12EA CERGY PONTOISE ATHLETISME *750SEM (2 / 28)18.5
9AIT OMAR ABDELLAH00:16:17AC VELIZY VILLACOUBLAY727SEM (3 / 28)18.4
10LARDON CORENTIN00:16:19S/L UNION SPORTIVE CHEMINOTE DE VENAREY LES LAUMES ATHLETISM833ESM (2 / 8)18.3
11MONTRAU FLORENT00:16:22S/L US VENDOMOISE ATHLETISME835M0M (1 / 9)18.3
12CASTILLO THOMAS00:16:31EA CERGY PONTOISE ATHLETISME *834SEM (4 / 28)18.1
13QUINTON SIMON00:16:37GALLY AC656M1M (1 / 13)18.0
14PALARUS MAXIME00:16:39POISSY TRIATHLON639JUM (3 / 8)18.0
15KEIBRACH AYMEN00:16:47745SEM (5 / 28)17.8
16BEAU GUILLAUME00:16:55S/L PLM CONFLANS780M3M (1 / 19)17.7
17JEHANNO DEWI00:16:56SO HOUILLES647M0M (2 / 9)17.7
18THIERY FLORIAN00:16:58GALLY AC676SEM (6 / 28)17.6
19LEGGETT BENJAMIN00:16:58COURBEVOIE ATHLETISME CLUB ET LOISIR859SEM (7 / 28)17.6
20BONNIN MAXENCE00:17:02ANDRESY ATHLETISME811ESM (3 / 8)17.6
21DESNOUX ROMAIN00:17:11675M0M (3 / 9)17.4
22GUERET JULIEN00:17:12OC CHATEAUDUN BONNEVAL A.*790SEM (8 / 28)17.4
23PIALAT BRICE00:17:14EA CERGY PONTOISE ATHLETISME *803M0M (4 / 9)17.4
24OUARET BADIS00:17:31ES SARTROUVILLE829MIM (3 / 7)17.1
25DEDOUCHE GAETAN00:17:33POISSY TRIATHLON690CAM (2 / 9)17.1
26TERTRIN LILIAN00:17:40FOULEES DE ST GERMAIN EN LAYE759SEM (9 / 28)16.9
27PIRON ANTHONY00:17:44802SEM (10 / 28)16.9
28SPIGARELLI JULIEN00:17:54S/L ASIC ORRY LA VILLE650SEM (11 / 28)16.7
29ESNAULT ERWANN00:17:57POISSY TRIATHLON808JUM (4 / 8)16.7
30DECUIGNIERE REMI00:17:57743SEM (12 / 28)16.7
31HUGUET MICHEL00:18:09ES SARTROUVILLE828M4M (1 / 12)16.5
32PAYANT ACHILLE00:18:15POISSY TRIATHLON796CAM (3 / 9)16.4
33GROS LISA00:18:19POISSY TRIATHLON776MIF (1 / 3)16.3
34BOUDRAS LUCAS00:18:27POISSY TRIATHLON701MIM (4 / 7)16.2
35BOUCHENY OLIVIER00:18:47EACPA664M3M (2 / 19)15.9
36MESSENGER SIMON00:18:48SO HOUILLES660M0M (5 / 9)15.9
37FAVROT MATTHIEU00:18:49SOH686M2M (1 / 13)15.9
38CRISSOT GABRIELLE00:18:49SO HOUILLES722SEF (1 / 18)15.9
39MANOURY FRANCK00:18:56SEA SHEPHERD801M3M (3 / 19)15.8
40DOMERGUE TOM00:18:58POISSY TRIATHLON842MIM (5 / 7)15.8
41PEREIRA LOU-ANN00:18:59POISSY TRIATHLON703CAF (1 / 5)15.8
42GUIN SAMUEL00:19:02858M1M (2 / 13)15.7
43AHERMOUCH YANIS00:19:04EACPA827SEM (13 / 28)15.7
44ANDRONY GUILLAUME00:19:05AS POISSY777ESM (4 / 8)15.7
45GUERVENOU FLORIAN00:19:08GALLY AC653ESM (5 / 8)15.6
46BRISACIER MARTIAL00:19:09ANDRESY ATHLETISME851M0M (6 / 9)15.6
47XEMARD ALAIN00:19:10AC VELIZY VILLACOUBLAY729M5M (1 / 9)15.6
48GROS EVA00:19:11POISSY TRIATHLON775MIF (2 / 3)15.6
49CRISSOT MATHILDE00:19:15SO HOUILLES720ESF (1 / 5)15.5
50METIVIER MAXIME00:19:16GALLY AC657M2M (2 / 13)15.5

Nous utilisons Google Analytics pour mesurer l'audience du site. Acceptez-vous le dépôt de cookies de mesure d'audience ? Vous pouvez changer d'avis à tout moment via « Gestion des cookies » en bas de page. En savoir plus